sensor_id;sensor_type;location;lat;lon;timestamp;P1;durP1;ratioP1;P2;durP2;ratioP2
24229;SDS011;12362;50.004;8.006;2023-05-16T00:01:17;1.90;;;0.63;;
24229;SDS011;12362;50.004;8.006;2023-05-16T00:03:43;2.10;;;1.05;;
24229;SDS011;12362;50.004;8.006;2023-05-16T00:06:09;3.38;;;1.27;;
24229;SDS011;12362;50.004;8.006;2023-05-16T00:08:35;2.55;;;1.35;;
24229;SDS011;12362;50.004;8.006;2023-05-16T00:11:00;2.58;;;1.05;;
24229;SDS011;12362;50.004;8.006;2023-05-16T00:13:26;1.38;;;0.65;;
24229;SDS011;12362;50.004;8.006;2023-05-16T00:15:53;2.45;;;1.27;;
24229;SDS011;12362;50.004;8.006;2023-05-16T00:18:20;3.58;;;1.08;;
24229;SDS011;12362;50.004;8.006;2023-05-16T00:20:47;3.60;;;1.00;;
24229;SDS011;12362;50.004;8.006;2023-05-16T00:23:13;14.80;;;1.80;;
24229;SDS011;12362;50.004;8.006;2023-05-16T00:25:39;3.15;;;1.02;;
24229;SDS011;12362;50.004;8.006;2023-05-16T00:28:05;2.30;;;0.73;;
24229;SDS011;12362;50.004;8.006;2023-05-16T00:30:31;3.30;;;1.17;;
24229;SDS011;12362;50.004;8.006;2023-05-16T00:32:56;3.20;;;1.08;;
24229;SDS011;12362;50.004;8.006;2023-05-16T00:35:22;2.08;;;0.77;;
24229;SDS011;12362;50.004;8.006;2023-05-16T00:37:48;6.35;;;1.63;;
24229;SDS011;12362;50.004;8.006;2023-05-16T00:40:15;2.40;;;1.02;;
24229;SDS011;12362;50.004;8.006;2023-05-16T00:42:41;9.32;;;1.15;;
24229;SDS011;12362;50.004;8.006;2023-05-16T00:45:07;1.60;;;1.00;;
24229;SDS011;12362;50.004;8.006;2023-05-16T00:47:33;2.65;;;0.82;;
24229;SDS011;12362;50.004;8.006;2023-05-16T00:49:59;1.45;;;0.50;;
24229;SDS011;12362;50.004;8.006;2023-05-16T00:52:24;1.40;;;0.63;;
24229;SDS011;12362;50.004;8.006;2023-05-16T00:54:50;2.67;;;0.75;;
24229;SDS011;12362;50.004;8.006;2023-05-16T00:57:16;1.25;;;0.80;;
24229;SDS011;12362;50.004;8.006;2023-05-16T00:59:43;4.40;;;1.35;;
24229;SDS011;12362;50.004;8.006;2023-05-16T01:02:10;4.28;;;0.70;;
24229;SDS011;12362;50.004;8.006;2023-05-16T01:04:37;2.63;;;0.85;;
24229;SDS011;12362;50.004;8.006;2023-05-16T01:07:03;0.98;;;0.47;;
24229;SDS011;12362;50.004;8.006;2023-05-16T01:09:32;4.00;;;0.90;;
24229;SDS011;12362;50.004;8.006;2023-05-16T01:14:55;1.08;;;0.82;;
24229;SDS011;12362;50.004;8.006;2023-05-16T01:26:17;2.03;;;1.08;;
24229;SDS011;12362;50.004;8.006;2023-05-16T01:28:46;1.40;;;0.60;;
24229;SDS011;12362;50.004;8.006;2023-05-16T01:31:13;1.33;;;1.10;;
24229;SDS011;12362;50.004;8.006;2023-05-16T01:33:39;1.25;;;0.60;;
24229;SDS011;12362;50.004;8.006;2023-05-16T01:36:07;1.63;;;0.85;;
24229;SDS011;12362;50.004;8.006;2023-05-16T01:39:29;0.85;;;0.73;;
24229;SDS011;12362;50.004;8.006;2023-05-16T01:47:02;4.03;;;1.02;;
24229;SDS011;12362;50.004;8.006;2023-05-16T01:49:34;1.60;;;0.90;;
24229;SDS011;12362;50.004;8.006;2023-05-16T01:52:10;5.50;;;0.82;;
24229;SDS011;12362;50.004;8.006;2023-05-16T01:54:41;1.35;;;0.80;;
24229;SDS011;12362;50.004;8.006;2023-05-16T01:57:09;1.65;;;0.77;;
24229;SDS011;12362;50.004;8.006;2023-05-16T01:59:37;3.58;;;1.13;;
24229;SDS011;12362;50.004;8.006;2023-05-16T02:02:03;7.22;;;2.03;;
24229;SDS011;12362;50.004;8.006;2023-05-16T02:04:29;5.35;;;0.95;;
24229;SDS011;12362;50.004;8.006;2023-05-16T02:06:55;4.97;;;1.42;;
24229;SDS011;12362;50.004;8.006;2023-05-16T02:09:21;1.15;;;0.80;;
24229;SDS011;12362;50.004;8.006;2023-05-16T02:11:46;3.20;;;1.20;;
24229;SDS011;12362;50.004;8.006;2023-05-16T02:14:12;1.42;;;0.50;;
24229;SDS011;12362;50.004;8.006;2023-05-16T02:16:38;2.22;;;1.13;;
24229;SDS011;12362;50.004;8.006;2023-05-16T02:19:03;0.93;;;0.60;;
24229;SDS011;12362;50.004;8.006;2023-05-16T02:21:29;2.30;;;1.30;;
24229;SDS011;12362;50.004;8.006;2023-05-16T02:23:55;5.60;;;1.42;;
24229;SDS011;12362;50.004;8.006;2023-05-16T02:26:20;0.50;;;0.50;;
24229;SDS011;12362;50.004;8.006;2023-05-16T02:28:46;2.05;;;0.88;;
24229;SDS011;12362;50.004;8.006;2023-05-16T02:31:47;2.30;;;0.93;;
24229;SDS011;12362;50.004;8.006;2023-05-16T02:34:06;2.85;;;0.98;;
24229;SDS011;12362;50.004;8.006;2023-05-16T02:36:32;4.15;;;1.40;;
24229;SDS011;12362;50.004;8.006;2023-05-16T02:39:00;0.95;;;0.60;;
24229;SDS011;12362;50.004;8.006;2023-05-16T02:41:26;4.53;;;0.93;;
24229;SDS011;12362;50.004;8.006;2023-05-16T02:43:52;2.20;;;1.15;;
24229;SDS011;12362;50.004;8.006;2023-05-16T02:46:21;2.60;;;0.63;;
24229;SDS011;12362;50.004;8.006;2023-05-16T02:48:51;2.58;;;0.40;;
24229;SDS011;12362;50.004;8.006;2023-05-16T02:51:22;1.10;;;0.38;;
24229;SDS011;12362;50.004;8.006;2023-05-16T02:53:49;0.55;;;0.28;;
24229;SDS011;12362;50.004;8.006;2023-05-16T02:56:15;0.30;;;0.30;;
24229;SDS011;12362;50.004;8.006;2023-05-16T02:58:41;1.00;;;0.35;;
24229;SDS011;12362;50.004;8.006;2023-05-16T03:01:07;3.00;;;0.52;;
24229;SDS011;12362;50.004;8.006;2023-05-16T03:03:33;0.28;;;0.28;;
24229;SDS011;12362;50.004;8.006;2023-05-16T03:06:01;1.35;;;0.75;;
24229;SDS011;12362;50.004;8.006;2023-05-16T03:08:26;3.63;;;0.82;;
24229;SDS011;12362;50.004;8.006;2023-05-16T03:10:54;1.20;;;0.65;;
24229;SDS011;12362;50.004;8.006;2023-05-16T03:13:20;3.80;;;0.55;;
24229;SDS011;12362;50.004;8.006;2023-05-16T03:15:47;0.40;;;0.35;;
24229;SDS011;12362;50.004;8.006;2023-05-16T03:18:12;0.35;;;0.13;;
24229;SDS011;12362;50.004;8.006;2023-05-16T03:20:38;0.30;;;0.20;;
24229;SDS011;12362;50.004;8.006;2023-05-16T03:23:03;0.80;;;0.20;;
24229;SDS011;12362;50.004;8.006;2023-05-16T03:25:34;0.20;;;0.10;;
24229;SDS011;12362;50.004;8.006;2023-05-16T03:28:07;1.95;;;0.30;;
24229;SDS011;12362;50.004;8.006;2023-05-16T03:30:32;0.30;;;0.30;;
24229;SDS011;12362;50.004;8.006;2023-05-16T03:32:58;1.08;;;0.30;;
24229;SDS011;12362;50.004;8.006;2023-05-16T03:35:24;0.45;;;0.20;;
24229;SDS011;12362;50.004;8.006;2023-05-16T03:37:50;0.90;;;0.10;;
24229;SDS011;12362;50.004;8.006;2023-05-16T03:40:17;0.10;;;0.10;;
24229;SDS011;12362;50.004;8.006;2023-05-16T03:42:42;0.25;;;0.20;;
24229;SDS011;12362;50.004;8.006;2023-05-16T03:45:08;0.03;;;0.03;;
24229;SDS011;12362;50.004;8.006;2023-05-16T03:47:33;0.05;;;0.05;;
24229;SDS011;12362;50.004;8.006;2023-05-16T03:49:59;0.00;;;0.00;;
24229;SDS011;12362;50.004;8.006;2023-05-16T03:52:25;0.17;;;0.10;;
24229;SDS011;12362;50.004;8.006;2023-05-16T03:54:50;0.10;;;0.10;;
24229;SDS011;12362;50.004;8.006;2023-05-16T03:57:16;0.00;;;0.00;;
24229;SDS011;12362;50.004;8.006;2023-05-16T03:59:41;0.45;;;0.20;;
24229;SDS011;12362;50.004;8.006;2023-05-16T04:02:07;0.10;;;0.10;;
24229;SDS011;12362;50.004;8.006;2023-05-16T04:04:33;0.00;;;0.00;;
24229;SDS011;12362;50.004;8.006;2023-05-16T04:06:59;0.00;;;0.00;;
24229;SDS011;12362;50.004;8.006;2023-05-16T04:09:25;0.20;;;0.10;;
24229;SDS011;12362;50.004;8.006;2023-05-16T04:11:51;0.28;;;0.10;;
24229;SDS011;12362;50.004;8.006;2023-05-16T04:14:16;0.10;;;0.10;;
24229;SDS011;12362;50.004;8.006;2023-05-16T04:16:42;0.10;;;0.10;;
24229;SDS011;12362;50.004;8.006;2023-05-16T04:19:07;0.17;;;0.17;;
24229;SDS011;12362;50.004;8.006;2023-05-16T04:21:33;0.10;;;0.10;;
24229;SDS011;12362;50.004;8.006;2023-05-16T04:24:00;0.10;;;0.10;;
24229;SDS011;12362;50.004;8.006;2023-05-16T04:26:26;0.00;;;0.00;;
24229;SDS011;12362;50.004;8.006;2023-05-16T04:28:51;0.30;;;0.25;;
24229;SDS011;12362;50.004;8.006;2023-05-16T04:31:17;0.05;;;0.05;;
24229;SDS011;12362;50.004;8.006;2023-05-16T04:33:42;0.10;;;0.10;;
24229;SDS011;12362;50.004;8.006;2023-05-16T04:36:08;0.13;;;0.13;;
24229;SDS011;12362;50.004;8.006;2023-05-16T04:38:36;0.08;;;0.08;;
24229;SDS011;12362;50.004;8.006;2023-05-16T04:41:01;0.35;;;0.20;;
24229;SDS011;12362;50.004;8.006;2023-05-16T04:43:28;0.10;;;0.10;;
24229;SDS011;12362;50.004;8.006;2023-05-16T04:45:53;0.10;;;0.10;;
24229;SDS011;12362;50.004;8.006;2023-05-16T04:48:19;1.55;;;0.10;;
24229;SDS011;12362;50.004;8.006;2023-05-16T04:50:44;0.13;;;0.13;;
24229;SDS011;12362;50.004;8.006;2023-05-16T04:53:10;0.00;;;0.00;;
24229;SDS011;12362;50.004;8.006;2023-05-16T04:55:35;0.10;;;0.10;;
24229;SDS011;12362;50.004;8.006;2023-05-16T04:58:01;0.20;;;0.10;;
24229;SDS011;12362;50.004;8.006;2023-05-16T05:00:26;0.10;;;0.10;;
24229;SDS011;12362;50.004;8.006;2023-05-16T05:02:52;0.10;;;0.10;;
24229;SDS011;12362;50.004;8.006;2023-05-16T05:05:18;0.20;;;0.20;;
24229;SDS011;12362;50.004;8.006;2023-05-16T05:07:43;0.45;;;0.22;;
24229;SDS011;12362;50.004;8.006;2023-05-16T05:10:09;0.10;;;0.10;;
24229;SDS011;12362;50.004;8.006;2023-05-16T05:12:35;0.10;;;0.10;;
24229;SDS011;12362;50.004;8.006;2023-05-16T05:15:01;0.03;;;0.03;;
24229;SDS011;12362;50.004;8.006;2023-05-16T05:17:27;0.28;;;0.00;;
24229;SDS011;12362;50.004;8.006;2023-05-16T05:19:53;0.30;;;0.30;;
24229;SDS011;12362;50.004;8.006;2023-05-16T05:22:19;0.00;;;0.00;;
24229;SDS011;12362;50.004;8.006;2023-05-16T05:24:44;0.00;;;0.00;;
24229;SDS011;12362;50.004;8.006;2023-05-16T05:27:10;0.10;;;0.10;;
24229;SDS011;12362;50.004;8.006;2023-05-16T05:29:35;1.10;;;0.10;;
24229;SDS011;12362;50.004;8.006;2023-05-16T05:32:01;0.00;;;0.00;;
24229;SDS011;12362;50.004;8.006;2023-05-16T05:34:27;0.13;;;0.13;;
24229;SDS011;12362;50.004;8.006;2023-05-16T05:36:52;0.00;;;0.00;;
24229;SDS011;12362;50.004;8.006;2023-05-16T05:39:18;0.00;;;0.00;;
24229;SDS011;12362;50.004;8.006;2023-05-16T05:41:43;0.05;;;0.05;;
24229;SDS011;12362;50.004;8.006;2023-05-16T05:44:09;0.00;;;0.00;;
24229;SDS011;12362;50.004;8.006;2023-05-16T05:46:34;0.20;;;0.10;;
24229;SDS011;12362;50.004;8.006;2023-05-16T05:49:00;0.10;;;0.10;;
24229;SDS011;12362;50.004;8.006;2023-05-16T05:51:26;0.00;;;0.00;;
24229;SDS011;12362;50.004;8.006;2023-05-16T05:53:51;0.00;;;0.00;;
24229;SDS011;12362;50.004;8.006;2023-05-16T05:56:18;0.10;;;0.10;;
24229;SDS011;12362;50.004;8.006;2023-05-16T05:58:43;0.10;;;0.10;;
24229;SDS011;12362;50.004;8.006;2023-05-16T06:01:09;0.00;;;0.00;;
24229;SDS011;12362;50.004;8.006;2023-05-16T06:03:35;0.10;;;0.10;;
24229;SDS011;12362;50.004;8.006;2023-05-16T06:06:01;0.52;;;0.20;;
24229;SDS011;12362;50.004;8.006;2023-05-16T06:08:27;0.08;;;0.08;;
24229;SDS011;12362;50.004;8.006;2023-05-16T06:10:53;0.10;;;0.10;;
24229;SDS011;12362;50.004;8.006;2023-05-16T06:13:18;0.10;;;0.10;;
24229;SDS011;12362;50.004;8.006;2023-05-16T06:15:48;0.00;;;0.00;;
24229;SDS011;12362;50.004;8.006;2023-05-16T06:18:17;0.00;;;0.00;;
24229;SDS011;12362;50.004;8.006;2023-05-16T06:20:42;0.00;;;0.00;;
24229;SDS011;12362;50.004;8.006;2023-05-16T06:23:08;0.08;;;0.08;;
24229;SDS011;12362;50.004;8.006;2023-05-16T06:25:33;0.03;;;0.00;;
24229;SDS011;12362;50.004;8.006;2023-05-16T06:27:59;0.08;;;0.08;;
24229;SDS011;12362;50.004;8.006;2023-05-16T06:30:24;0.30;;;0.10;;
24229;SDS011;12362;50.004;8.006;2023-05-16T06:32:50;0.30;;;0.30;;
24229;SDS011;12362;50.004;8.006;2023-05-16T06:35:15;0.00;;;0.00;;
24229;SDS011;12362;50.004;8.006;2023-05-16T06:37:41;0.00;;;0.00;;
24229;SDS011;12362;50.004;8.006;2023-05-16T06:40:06;0.10;;;0.08;;
24229;SDS011;12362;50.004;8.006;2023-05-16T06:42:32;0.10;;;0.10;;
24229;SDS011;12362;50.004;8.006;2023-05-16T06:44:58;0.05;;;0.05;;
24229;SDS011;12362;50.004;8.006;2023-05-16T06:47:23;0.10;;;0.10;;
24229;SDS011;12362;50.004;8.006;2023-05-16T06:49:49;0.00;;;0.00;;
24229;SDS011;12362;50.004;8.006;2023-05-16T06:52:15;0.00;;;0.00;;
24229;SDS011;12362;50.004;8.006;2023-05-16T06:54:40;0.00;;;0.00;;
24229;SDS011;12362;50.004;8.006;2023-05-16T06:57:06;0.45;;;0.10;;
24229;SDS011;12362;50.004;8.006;2023-05-16T06:59:33;0.00;;;0.00;;
24229;SDS011;12362;50.004;8.006;2023-05-16T07:01:59;0.00;;;0.00;;
24229;SDS011;12362;50.004;8.006;2023-05-16T07:04:25;0.00;;;0.00;;
24229;SDS011;12362;50.004;8.006;2023-05-16T07:06:51;0.00;;;0.00;;
24229;SDS011;12362;50.004;8.006;2023-05-16T07:09:17;0.10;;;0.10;;
24229;SDS011;12362;50.004;8.006;2023-05-16T07:11:43;0.10;;;0.10;;
24229;SDS011;12362;50.004;8.006;2023-05-16T07:14:09;0.10;;;0.10;;
24229;SDS011;12362;50.004;8.006;2023-05-16T07:16:34;0.03;;;0.03;;
24229;SDS011;12362;50.004;8.006;2023-05-16T07:19:00;0.08;;;0.08;;
24229;SDS011;12362;50.004;8.006;2023-05-16T07:21:26;3.42;;;0.10;;
24229;SDS011;12362;50.004;8.006;2023-05-16T07:23:52;0.00;;;0.00;;
24229;SDS011;12362;50.004;8.006;2023-05-16T07:26:17;0.00;;;0.00;;
24229;SDS011;12362;50.004;8.006;2023-05-16T07:28:43;0.00;;;0.00;;
24229;SDS011;12362;50.004;8.006;2023-05-16T07:31:08;0.40;;;0.10;;
24229;SDS011;12362;50.004;8.006;2023-05-16T07:33:34;0.10;;;0.10;;
24229;SDS011;12362;50.004;8.006;2023-05-16T07:35:59;0.00;;;0.00;;
24229;SDS011;12362;50.004;8.006;2023-05-16T07:38:25;0.52;;;0.10;;
24229;SDS011;12362;50.004;8.006;2023-05-16T07:40:51;0.00;;;0.00;;
24229;SDS011;12362;50.004;8.006;2023-05-16T07:43:16;0.00;;;0.00;;
24229;SDS011;12362;50.004;8.006;2023-05-16T07:49:19;0.10;;;0.10;;
24229;SDS011;12362;50.004;8.006;2023-05-16T07:51:45;0.00;;;0.00;;
24229;SDS011;12362;50.004;8.006;2023-05-16T07:54:11;0.00;;;0.00;;
24229;SDS011;12362;50.004;8.006;2023-05-16T07:56:36;0.00;;;0.00;;
24229;SDS011;12362;50.004;8.006;2023-05-16T07:59:02;0.10;;;0.10;;
24229;SDS011;12362;50.004;8.006;2023-05-16T08:01:29;0.00;;;0.00;;
24229;SDS011;12362;50.004;8.006;2023-05-16T08:03:55;0.00;;;0.00;;
24229;SDS011;12362;50.004;8.006;2023-05-16T08:06:21;0.05;;;0.05;;
24229;SDS011;12362;50.004;8.006;2023-05-16T08:08:46;0.08;;;0.08;;
24229;SDS011;12362;50.004;8.006;2023-05-16T08:11:12;0.10;;;0.10;;
24229;SDS011;12362;50.004;8.006;2023-05-16T08:13:37;0.03;;;0.03;;
24229;SDS011;12362;50.004;8.006;2023-05-16T08:16:03;0.00;;;0.00;;
24229;SDS011;12362;50.004;8.006;2023-05-16T08:18:28;2.75;;;0.30;;
24229;SDS011;12362;50.004;8.006;2023-05-16T08:20:54;0.00;;;0.00;;
24229;SDS011;12362;50.004;8.006;2023-05-16T08:23:19;0.32;;;0.10;;
24229;SDS011;12362;50.004;8.006;2023-05-16T08:25:45;0.00;;;0.00;;
24229;SDS011;12362;50.004;8.006;2023-05-16T08:28:10;0.03;;;0.03;;
24229;SDS011;12362;50.004;8.006;2023-05-16T08:30:36;0.00;;;0.00;;
24229;SDS011;12362;50.004;8.006;2023-05-16T08:33:01;0.10;;;0.10;;
24229;SDS011;12362;50.004;8.006;2023-05-16T08:35:29;0.10;;;0.00;;
24229;SDS011;12362;50.004;8.006;2023-05-16T08:37:55;0.50;;;0.20;;
24229;SDS011;12362;50.004;8.006;2023-05-16T08:40:21;0.20;;;0.10;;
24229;SDS011;12362;50.004;8.006;2023-05-16T08:42:50;0.57;;;0.10;;
24229;SDS011;12362;50.004;8.006;2023-05-16T08:45:16;0.10;;;0.03;;
24229;SDS011;12362;50.004;8.006;2023-05-16T08:47:41;0.00;;;0.00;;
24229;SDS011;12362;50.004;8.006;2023-05-16T08:50:08;0.57;;;0.30;;
24229;SDS011;12362;50.004;8.006;2023-05-16T08:52:34;0.00;;;0.00;;
24229;SDS011;12362;50.004;8.006;2023-05-16T08:55:02;0.00;;;0.00;;
24229;SDS011;12362;50.004;8.006;2023-05-16T08:57:35;0.20;;;0.20;;
24229;SDS011;12362;50.004;8.006;2023-05-16T09:00:02;2.08;;;0.85;;
24229;SDS011;12362;50.004;8.006;2023-05-16T09:02:31;0.10;;;0.10;;
24229;SDS011;12362;50.004;8.006;2023-05-16T09:05:16;0.25;;;0.25;;
24229;SDS011;12362;50.004;8.006;2023-05-16T09:07:42;0.25;;;0.25;;
24229;SDS011;12362;50.004;8.006;2023-05-16T09:10:10;0.20;;;0.13;;
24229;SDS011;12362;50.004;8.006;2023-05-16T09:12:37;0.30;;;0.30;;
24229;SDS011;12362;50.004;8.006;2023-05-16T09:15:09;0.20;;;0.00;;
24229;SDS011;12362;50.004;8.006;2023-05-16T09:17:36;0.38;;;0.38;;
24229;SDS011;12362;50.004;8.006;2023-05-16T09:22:36;0.08;;;0.08;;
24229;SDS011;12362;50.004;8.006;2023-05-16T09:25:02;7.82;;;0.90;;
24229;SDS011;12362;50.004;8.006;2023-05-16T09:27:29;0.40;;;0.20;;
24229;SDS011;12362;50.004;8.006;2023-05-16T09:29:56;0.00;;;0.00;;
24229;SDS011;12362;50.004;8.006;2023-05-16T09:32:22;1.52;;;0.20;;
24229;SDS011;12362;50.004;8.006;2023-05-16T09:34:49;1.13;;;0.50;;
24229;SDS011;12362;50.004;8.006;2023-05-16T09:37:16;0.10;;;0.10;;
24229;SDS011;12362;50.004;8.006;2023-05-16T09:39:46;0.10;;;0.10;;
24229;SDS011;12362;50.004;8.006;2023-05-16T09:42:13;0.45;;;0.13;;
24229;SDS011;12362;50.004;8.006;2023-05-16T09:44:40;2.90;;;0.20;;
24229;SDS011;12362;50.004;8.006;2023-05-16T09:47:06;0.45;;;0.30;;
24229;SDS011;12362;50.004;8.006;2023-05-16T09:49:31;1.55;;;0.40;;
24229;SDS011;12362;50.004;8.006;2023-05-16T09:52:03;0.90;;;0.57;;
24229;SDS011;12362;50.004;8.006;2023-05-16T09:54:30;2.90;;;0.30;;
24229;SDS011;12362;50.004;8.006;2023-05-16T09:56:57;4.20;;;0.57;;
24229;SDS011;12362;50.004;8.006;2023-05-16T09:59:23;0.20;;;0.20;;
24229;SDS011;12362;50.004;8.006;2023-05-16T10:01:48;1.05;;;0.38;;
24229;SDS011;12362;50.004;8.006;2023-05-16T10:04:15;0.60;;;0.20;;
24229;SDS011;12362;50.004;8.006;2023-05-16T10:06:41;0.22;;;0.22;;
24229;SDS011;12362;50.004;8.006;2023-05-16T10:09:09;0.08;;;0.08;;
24229;SDS011;12362;50.004;8.006;2023-05-16T10:11:37;0.10;;;0.10;;
24229;SDS011;12362;50.004;8.006;2023-05-16T10:14:06;4.85;;;0.28;;
24229;SDS011;12362;50.004;8.006;2023-05-16T10:16:42;0.03;;;0.03;;
24229;SDS011;12362;50.004;8.006;2023-05-16T10:19:10;0.43;;;0.25;;
24229;SDS011;12362;50.004;8.006;2023-05-16T10:21:37;0.30;;;0.20;;
24229;SDS011;12362;50.004;8.006;2023-05-16T10:24:05;0.03;;;0.03;;
24229;SDS011;12362;50.004;8.006;2023-05-16T10:26:35;0.10;;;0.10;;
24229;SDS011;12362;50.004;8.006;2023-05-16T10:29:00;0.68;;;0.10;;
24229;SDS011;12362;50.004;8.006;2023-05-16T10:31:27;0.17;;;0.17;;
24229;SDS011;12362;50.004;8.006;2023-05-16T10:33:54;0.10;;;0.10;;
24229;SDS011;12362;50.004;8.006;2023-05-16T10:36:21;0.30;;;0.10;;
24229;SDS011;12362;50.004;8.006;2023-05-16T10:38:47;1.15;;;0.45;;
24229;SDS011;12362;50.004;8.006;2023-05-16T10:41:14;0.25;;;0.20;;
24229;SDS011;12362;50.004;8.006;2023-05-16T10:43:43;0.77;;;0.40;;
24229;SDS011;12362;50.004;8.006;2023-05-16T10:46:10;3.17;;;0.28;;
24229;SDS011;12362;50.004;8.006;2023-05-16T10:48:37;0.22;;;0.08;;
24229;SDS011;12362;50.004;8.006;2023-05-16T10:51:21;0.90;;;0.10;;
24229;SDS011;12362;50.004;8.006;2023-05-16T10:54:08;0.25;;;0.10;;
24229;SDS011;12362;50.004;8.006;2023-05-16T10:56:36;0.00;;;0.00;;
24229;SDS011;12362;50.004;8.006;2023-05-16T10:59:02;0.20;;;0.20;;
24229;SDS011;12362;50.004;8.006;2023-05-16T11:01:30;1.00;;;0.10;;
24229;SDS011;12362;50.004;8.006;2023-05-16T11:22:13;0.00;;;0.00;;
24229;SDS011;12362;50.004;8.006;2023-05-16T11:27:25;0.10;;;0.10;;
24229;SDS011;12362;50.004;8.006;2023-05-16T11:32:30;2.38;;;0.43;;
24229;SDS011;12362;50.004;8.006;2023-05-16T11:34:59;0.17;;;0.10;;
24229;SDS011;12362;50.004;8.006;2023-05-16T11:37:26;0.30;;;0.10;;
24229;SDS011;12362;50.004;8.006;2023-05-16T11:39:52;3.20;;;0.38;;
24229;SDS011;12362;50.004;8.006;2023-05-16T11:42:18;0.00;;;0.00;;
24229;SDS011;12362;50.004;8.006;2023-05-16T11:44:44;0.25;;;0.25;;
24229;SDS011;12362;50.004;8.006;2023-05-16T11:47:09;0.10;;;0.10;;
24229;SDS011;12362;50.004;8.006;2023-05-16T11:49:36;0.00;;;0.00;;
24229;SDS011;12362;50.004;8.006;2023-05-16T11:52:02;0.57;;;0.25;;
24229;SDS011;12362;50.004;8.006;2023-05-16T11:54:28;0.00;;;0.00;;
24229;SDS011;12362;50.004;8.006;2023-05-16T11:56:54;0.00;;;0.00;;
24229;SDS011;12362;50.004;8.006;2023-05-16T11:59:20;0.00;;;0.00;;
24229;SDS011;12362;50.004;8.006;2023-05-16T12:01:46;0.20;;;0.20;;
24229;SDS011;12362;50.004;8.006;2023-05-16T12:04:13;0.20;;;0.20;;
24229;SDS011;12362;50.004;8.006;2023-05-16T12:06:41;0.32;;;0.20;;
24229;SDS011;12362;50.004;8.006;2023-05-16T12:09:12;2.72;;;0.35;;
24229;SDS011;12362;50.004;8.006;2023-05-16T12:11:39;0.00;;;0.00;;
24229;SDS011;12362;50.004;8.006;2023-05-16T12:14:06;1.92;;;0.10;;
24229;SDS011;12362;50.004;8.006;2023-05-16T12:16:33;0.10;;;0.10;;
24229;SDS011;12362;50.004;8.006;2023-05-16T12:19:04;0.10;;;0.10;;
24229;SDS011;12362;50.004;8.006;2023-05-16T12:21:31;1.20;;;0.20;;
24229;SDS011;12362;50.004;8.006;2023-05-16T12:23:57;1.10;;;0.10;;
24229;SDS011;12362;50.004;8.006;2023-05-16T12:26:26;0.00;;;0.00;;
24229;SDS011;12362;50.004;8.006;2023-05-16T12:28:57;0.50;;;0.20;;
24229;SDS011;12362;50.004;8.006;2023-05-16T12:31:27;0.17;;;0.10;;
24229;SDS011;12362;50.004;8.006;2023-05-16T12:33:54;5.25;;;0.20;;
24229;SDS011;12362;50.004;8.006;2023-05-16T12:36:21;1.10;;;0.15;;
24229;SDS011;12362;50.004;8.006;2023-05-16T12:38:47;0.55;;;0.10;;
24229;SDS011;12362;50.004;8.006;2023-05-16T12:41:17;0.00;;;0.00;;
24229;SDS011;12362;50.004;8.006;2023-05-16T12:43:44;0.10;;;0.10;;
24229;SDS011;12362;50.004;8.006;2023-05-16T12:46:09;0.00;;;0.00;;
24229;SDS011;12362;50.004;8.006;2023-05-16T12:48:38;0.13;;;0.13;;
24229;SDS011;12362;50.004;8.006;2023-05-16T12:51:09;0.20;;;0.20;;
24229;SDS011;12362;50.004;8.006;2023-05-16T12:53:41;0.00;;;0.00;;
24229;SDS011;12362;50.004;8.006;2023-05-16T12:56:07;0.30;;;0.13;;
24229;SDS011;12362;50.004;8.006;2023-05-16T12:58:33;0.00;;;0.00;;
24229;SDS011;12362;50.004;8.006;2023-05-16T13:00:58;0.10;;;0.10;;
24229;SDS011;12362;50.004;8.006;2023-05-16T13:03:24;0.20;;;0.20;;
24229;SDS011;12362;50.004;8.006;2023-05-16T13:05:49;1.13;;;0.40;;
24229;SDS011;12362;50.004;8.006;2023-05-16T13:08:17;0.10;;;0.10;;
24229;SDS011;12362;50.004;8.006;2023-05-16T13:10:42;1.02;;;0.70;;
24229;SDS011;12362;50.004;8.006;2023-05-16T13:13:07;0.10;;;0.10;;
24229;SDS011;12362;50.004;8.006;2023-05-16T13:15:36;3.03;;;0.05;;
24229;SDS011;12362;50.004;8.006;2023-05-16T13:18:27;0.45;;;0.10;;
24229;SDS011;12362;50.004;8.006;2023-05-16T13:21:15;0.10;;;0.10;;
24229;SDS011;12362;50.004;8.006;2023-05-16T13:23:51;0.10;;;0.10;;
24229;SDS011;12362;50.004;8.006;2023-05-16T13:26:40;0.28;;;0.03;;
24229;SDS011;12362;50.004;8.006;2023-05-16T13:29:33;0.08;;;0.08;;
24229;SDS011;12362;50.004;8.006;2023-05-16T13:32:10;0.22;;;0.10;;
24229;SDS011;12362;50.004;8.006;2023-05-16T13:34:58;0.05;;;0.03;;
24229;SDS011;12362;50.004;8.006;2023-05-16T13:40:46;0.00;;;0.00;;
24229;SDS011;12362;50.004;8.006;2023-05-16T13:43:27;0.10;;;0.00;;
24229;SDS011;12362;50.004;8.006;2023-05-16T13:46:05;0.00;;;0.00;;
24229;SDS011;12362;50.004;8.006;2023-05-16T13:49:02;0.22;;;0.22;;
24229;SDS011;12362;50.004;8.006;2023-05-16T13:55:00;0.03;;;0.03;;
24229;SDS011;12362;50.004;8.006;2023-05-16T13:57:39;0.00;;;0.00;;
24229;SDS011;12362;50.004;8.006;2023-05-16T14:00:04;0.00;;;0.00;;
24229;SDS011;12362;50.004;8.006;2023-05-16T14:02:39;0.47;;;0.20;;
24229;SDS011;12362;50.004;8.006;2023-05-16T14:05:10;0.38;;;0.20;;
24229;SDS011;12362;50.004;8.006;2023-05-16T14:08:07;0.25;;;0.10;;
24229;SDS011;12362;50.004;8.006;2023-05-16T14:10:32;0.00;;;0.00;;
24229;SDS011;12362;50.004;8.006;2023-05-16T14:12:58;5.78;;;0.55;;
24229;SDS011;12362;50.004;8.006;2023-05-16T14:15:23;0.10;;;0.10;;
24229;SDS011;12362;50.004;8.006;2023-05-16T14:17:58;0.20;;;0.20;;
24229;SDS011;12362;50.004;8.006;2023-05-16T14:20:30;0.10;;;0.10;;
24229;SDS011;12362;50.004;8.006;2023-05-16T14:22:59;0.08;;;0.08;;
24229;SDS011;12362;50.004;8.006;2023-05-16T14:25:54;5.18;;;0.10;;
24229;SDS011;12362;50.004;8.006;2023-05-16T14:28:53;0.00;;;0.00;;
24229;SDS011;12362;50.004;8.006;2023-05-16T14:31:21;0.22;;;0.22;;
24229;SDS011;12362;50.004;8.006;2023-05-16T14:36:31;0.20;;;0.05;;
24229;SDS011;12362;50.004;8.006;2023-05-16T14:39:08;0.00;;;0.00;;
24229;SDS011;12362;50.004;8.006;2023-05-16T14:41:54;0.00;;;0.00;;
24229;SDS011;12362;50.004;8.006;2023-05-16T14:44:20;0.00;;;0.00;;
24229;SDS011;12362;50.004;8.006;2023-05-16T14:46:55;0.13;;;0.10;;
24229;SDS011;12362;50.004;8.006;2023-05-16T14:49:42;0.00;;;0.00;;
24229;SDS011;12362;50.004;8.006;2023-05-16T14:52:26;0.20;;;0.00;;
24229;SDS011;12362;50.004;8.006;2023-05-16T14:58:40;1.10;;;0.20;;
24229;SDS011;12362;50.004;8.006;2023-05-16T15:01:07;0.45;;;0.00;;
24229;SDS011;12362;50.004;8.006;2023-05-16T15:03:32;0.10;;;0.10;;
24229;SDS011;12362;50.004;8.006;2023-05-16T15:05:58;0.17;;;0.08;;
24229;SDS011;12362;50.004;8.006;2023-05-16T15:08:24;0.20;;;0.10;;
24229;SDS011;12362;50.004;8.006;2023-05-16T15:10:57;0.22;;;0.22;;
24229;SDS011;12362;50.004;8.006;2023-05-16T15:13:25;8.57;;;0.13;;
24229;SDS011;12362;50.004;8.006;2023-05-16T15:16:06;0.03;;;0.03;;
24229;SDS011;12362;50.004;8.006;2023-05-16T15:19:12;0.00;;;0.00;;
24229;SDS011;12362;50.004;8.006;2023-05-16T15:21:38;0.08;;;0.00;;
24229;SDS011;12362;50.004;8.006;2023-05-16T15:24:40;0.00;;;0.00;;
24229;SDS011;12362;50.004;8.006;2023-05-16T15:27:52;0.00;;;0.00;;
24229;SDS011;12362;50.004;8.006;2023-05-16T15:30:29;0.05;;;0.05;;
24229;SDS011;12362;50.004;8.006;2023-05-16T15:32:58;1.35;;;0.10;;
24229;SDS011;12362;50.004;8.006;2023-05-16T15:35:47;1.20;;;0.10;;
24229;SDS011;12362;50.004;8.006;2023-05-16T15:38:26;0.00;;;0.00;;
24229;SDS011;12362;50.004;8.006;2023-05-16T15:40:55;0.00;;;0.00;;
24229;SDS011;12362;50.004;8.006;2023-05-16T15:43:23;0.00;;;0.00;;
24229;SDS011;12362;50.004;8.006;2023-05-16T15:46:03;1.60;;;0.10;;
24229;SDS011;12362;50.004;8.006;2023-05-16T15:51:46;1.65;;;0.20;;
24229;SDS011;12362;50.004;8.006;2023-05-16T15:54:27;12.88;;;0.45;;
24229;SDS011;12362;50.004;8.006;2023-05-16T15:57:10;0.08;;;0.00;;
24229;SDS011;12362;50.004;8.006;2023-05-16T15:59:40;0.00;;;0.00;;